createdAt,value
2023-07-07T00:00:02.178Z,6.70
2023-07-07T00:00:12.182Z,6.68
2023-07-07T00:00:22.185Z,6.68
2023-07-07T00:00:32.181Z,6.67
2023-07-07T00:00:42.212Z,6.66
2023-07-07T00:00:52.188Z,6.66
2023-07-07T00:01:02.199Z,6.66
2023-07-07T00:01:12.189Z,6.66
2023-07-07T00:01:22.314Z,6.64
2023-07-07T00:01:32.256Z,6.63
2023-07-07T00:01:52.216Z,6.64
2023-07-07T00:02:02.236Z,6.64
2023-07-07T00:02:12.229Z,6.65
2023-07-07T00:02:22.214Z,6.63
2023-07-07T00:02:32.256Z,6.63
2023-07-07T00:02:42.219Z,6.65
2023-07-07T00:02:52.302Z,6.63
2023-07-07T00:03:02.214Z,6.63
2023-07-07T00:03:12.269Z,6.64
2023-07-07T00:03:22.201Z,6.62
2023-07-07T00:03:42.238Z,6.63
2023-07-07T00:03:52.284Z,6.61
2023-07-07T00:04:02.239Z,6.58
2023-07-07T00:04:12.256Z,6.58
2023-07-07T00:04:22.217Z,6.59
2023-07-07T00:04:32.316Z,6.57
2023-07-07T00:04:42.196Z,6.57
2023-07-07T00:05:02.201Z,6.57
2023-07-07T00:05:12.225Z,6.57
2023-07-07T00:05:22.204Z,6.56
2023-07-07T00:05:32.212Z,6.56
2023-07-07T00:05:42.210Z,6.55
2023-07-07T00:05:52.219Z,6.55
2023-07-07T00:06:02.218Z,6.55
2023-07-07T00:06:12.209Z,6.50
2023-07-07T00:06:22.215Z,6.50
2023-07-07T00:06:32.217Z,6.47
2023-07-07T00:06:42.204Z,6.47
2023-07-07T00:07:02.216Z,6.47
2023-07-07T00:07:12.225Z,6.45
2023-07-07T00:07:22.220Z,6.45
2023-07-07T00:07:32.216Z,6.45
2023-07-07T00:07:42.241Z,6.44
2023-07-07T00:07:52.234Z,6.44
2023-07-07T00:08:02.223Z,6.44
2023-07-07T00:08:12.240Z,6.47
2023-07-07T00:08:22.218Z,6.47
2023-07-07T00:08:32.205Z,6.47
2023-07-07T00:08:42.221Z,6.47
2023-07-07T00:09:02.228Z,6.49
2023-07-07T00:09:12.220Z,6.50
2023-07-07T00:09:22.218Z,6.50
2023-07-07T00:09:32.224Z,6.52
2023-07-07T00:09:42.229Z,6.53
2023-07-07T00:09:52.244Z,6.55
2023-07-07T00:10:02.234Z,6.55
2023-07-07T00:10:12.252Z,6.55
2023-07-07T00:10:22.258Z,6.56
2023-07-07T00:10:32.228Z,6.57
2023-07-07T00:10:42.227Z,6.59
2023-07-07T00:10:52.246Z,6.60
2023-07-07T00:11:02.241Z,6.60
2023-07-07T00:11:12.233Z,6.60
2023-07-07T00:11:32.242Z,6.62
2023-07-07T00:11:42.241Z,6.63
2023-07-07T00:11:52.236Z,6.63
2023-07-07T00:12:02.258Z,6.65
2023-07-07T00:12:12.236Z,6.66
2023-07-07T00:12:22.247Z,6.64
2023-07-07T00:12:32.245Z,6.66
2023-07-07T00:12:42.239Z,6.65
2023-07-07T00:12:52.259Z,6.66
2023-07-07T00:13:02.259Z,6.66
2023-07-07T00:13:12.253Z,6.65
2023-07-07T00:13:22.253Z,6.65
2023-07-07T00:13:32.290Z,6.63
2023-07-07T00:13:42.281Z,6.64
2023-07-07T00:14:02.285Z,6.62
2023-07-07T00:14:12.258Z,6.63
2023-07-07T00:14:22.250Z,6.62
2023-07-07T00:14:32.262Z,6.61
2023-07-07T00:14:42.246Z,6.61
2023-07-07T00:14:52.266Z,6.62
2023-07-07T00:15:02.271Z,6.62
2023-07-07T00:15:12.248Z,6.63
2023-07-07T00:15:22.247Z,6.65
2023-07-07T00:15:32.260Z,6.63
2023-07-07T00:15:42.257Z,6.65
2023-07-07T00:15:52.256Z,6.64
2023-07-07T00:16:02.258Z,6.65
2023-07-07T00:16:12.263Z,6.63
2023-07-07T00:16:22.306Z,6.64
2023-07-07T00:16:32.280Z,6.63
2023-07-07T00:16:42.275Z,6.63
2023-07-07T00:16:52.377Z,6.62
2023-07-07T00:17:02.273Z,6.62
2023-07-07T00:17:12.257Z,6.62
2023-07-07T00:17:32.331Z,6.62
2023-07-07T00:17:42.296Z,6.59
2023-07-07T00:17:52.324Z,6.61
2023-07-07T00:18:02.333Z,6.60
2023-07-07T00:18:12.258Z,6.61
2023-07-07T00:18:22.258Z,6.61
2023-07-07T00:18:32.267Z,6.59
2023-07-07T00:18:52.264Z,6.60
2023-07-07T00:19:02.271Z,6.60
2023-07-07T00:19:12.268Z,6.61
2023-07-07T00:19:22.272Z,6.61
2023-07-07T00:19:32.268Z,6.61
2023-07-07T00:19:42.268Z,6.62
2023-07-07T00:19:52.271Z,6.59
2023-07-07T00:20:12.263Z,6.60
2023-07-07T00:20:22.272Z,6.59
2023-07-07T00:20:32.278Z,6.58
2023-07-07T00:20:42.273Z,6.59
2023-07-07T00:20:52.269Z,6.58
2023-07-07T00:21:02.269Z,6.57
2023-07-07T00:21:22.275Z,6.58
2023-07-07T00:21:32.272Z,6.58
2023-07-07T00:21:42.275Z,6.58
2023-07-07T00:21:52.276Z,6.56
2023-07-07T00:22:02.286Z,6.56
2023-07-07T00:22:12.272Z,6.55
2023-07-07T00:22:22.272Z,6.55
2023-07-07T00:22:32.270Z,6.55
2023-07-07T00:22:42.278Z,6.55
2023-07-07T00:22:52.282Z,6.55
2023-07-07T00:23:12.271Z,6.56
2023-07-07T00:23:22.275Z,6.55
2023-07-07T00:23:32.278Z,6.52
2023-07-07T00:23:42.278Z,6.52
2023-07-07T00:23:52.280Z,6.50
2023-07-07T00:24:02.279Z,6.51
2023-07-07T00:24:12.280Z,6.51
2023-07-07T00:24:22.276Z,6.49
2023-07-07T00:24:32.290Z,6.49
2023-07-07T00:24:42.296Z,6.48
2023-07-07T00:24:52.298Z,6.48
2023-07-07T00:25:02.285Z,6.47
2023-07-07T00:25:12.303Z,6.45
2023-07-07T00:25:32.290Z,6.44
2023-07-07T00:25:42.291Z,6.42
2023-07-07T00:25:52.287Z,6.41
2023-07-07T00:26:02.288Z,6.40
2023-07-07T00:26:12.277Z,6.41
2023-07-07T00:26:22.289Z,6.38
2023-07-07T00:26:42.300Z,6.38
2023-07-07T00:26:52.287Z,6.38
2023-07-07T00:27:02.286Z,6.37
2023-07-07T00:27:12.295Z,6.38
2023-07-07T00:27:22.301Z,6.38
2023-07-07T00:27:32.291Z,6.37
2023-07-07T00:27:42.311Z,6.38
2023-07-07T00:27:52.310Z,6.37
2023-07-07T00:28:02.301Z,6.37
2023-07-07T00:28:12.283Z,6.37
2023-07-07T00:28:22.300Z,6.35
2023-07-07T00:28:32.293Z,6.34
2023-07-07T00:28:52.797Z,6.35
2023-07-07T00:29:02.316Z,6.34
2023-07-07T00:29:12.296Z,6.32
2023-07-07T00:29:22.302Z,6.32
2023-07-07T00:29:32.316Z,6.30
2023-07-07T00:29:42.307Z,6.28
2023-07-07T00:30:02.300Z,6.27
2023-07-07T00:30:12.363Z,6.27
2023-07-07T00:30:22.312Z,6.26
2023-07-07T00:30:32.368Z,6.27
2023-07-07T00:30:42.336Z,6.27
2023-07-07T00:30:52.325Z,6.26
2023-07-07T00:31:02.553Z,6.24
2023-07-07T00:31:12.401Z,6.22
2023-07-07T00:31:22.409Z,6.21
2023-07-07T00:31:32.312Z,6.23
2023-07-07T00:31:42.316Z,6.23
2023-07-07T00:31:52.312Z,6.21
2023-07-07T00:32:02.322Z,6.20
2023-07-07T00:32:22.499Z,6.19
2023-07-07T00:32:32.423Z,6.19
2023-07-07T00:32:42.347Z,6.18
2023-07-07T00:32:52.397Z,6.17
2023-07-07T00:33:02.360Z,6.18
2023-07-07T00:33:12.318Z,6.19
2023-07-07T00:33:22.318Z,6.18
2023-07-07T00:33:32.323Z,6.18
2023-07-07T00:33:42.340Z,6.18
2023-07-07T00:34:02.330Z,6.16
2023-07-07T00:34:12.329Z,6.17
2023-07-07T00:34:22.342Z,6.18
2023-07-07T00:34:32.338Z,6.17
2023-07-07T00:34:42.327Z,6.16
2023-07-07T00:34:52.320Z,6.16
2023-07-07T00:35:12.339Z,6.17
2023-07-07T00:35:22.329Z,6.16
2023-07-07T00:35:32.331Z,6.18
2023-07-07T00:35:42.329Z,6.19
2023-07-07T00:35:52.330Z,6.19
2023-07-07T00:36:02.338Z,6.22
2023-07-07T00:36:12.341Z,6.21
2023-07-07T00:36:22.337Z,6.24
2023-07-07T00:36:32.336Z,6.23
2023-07-07T00:36:42.333Z,6.23
2023-07-07T00:36:52.332Z,6.24
2023-07-07T00:37:02.335Z,6.27
2023-07-07T00:37:22.335Z,6.27
2023-07-07T00:37:32.334Z,6.30
2023-07-07T00:37:42.345Z,6.28
2023-07-07T00:37:52.356Z,6.30
2023-07-07T00:38:02.340Z,6.30
2023-07-07T00:38:12.349Z,6.32
2023-07-07T00:38:22.348Z,6.33
2023-07-07T00:38:32.340Z,6.33
2023-07-07T00:38:52.372Z,6.34
2023-07-07T00:39:02.340Z,6.35
2023-07-07T00:39:12.358Z,6.37
2023-07-07T00:39:22.349Z,6.38
2023-07-07T00:39:32.344Z,6.38
2023-07-07T00:39:42.345Z,6.39
2023-07-07T00:40:02.400Z,6.41
2023-07-07T00:40:12.346Z,6.42
2023-07-07T00:40:22.348Z,6.41
2023-07-07T00:40:32.352Z,6.42
2023-07-07T00:40:42.349Z,6.42
2023-07-07T00:40:52.358Z,6.41
2023-07-07T00:41:02.370Z,6.40
2023-07-07T00:41:12.358Z,6.41
2023-07-07T00:41:22.350Z,6.40
2023-07-07T00:41:32.354Z,6.42
2023-07-07T00:41:42.389Z,6.42
2023-07-07T00:41:52.363Z,6.41
2023-07-07T00:42:02.364Z,6.41
2023-07-07T00:42:12.359Z,6.42
2023-07-07T00:42:22.362Z,6.41
2023-07-07T00:42:32.364Z,6.41
2023-07-07T00:42:42.362Z,6.42
2023-07-07T00:42:52.375Z,6.42
2023-07-07T00:43:02.344Z,6.41
2023-07-07T00:43:12.381Z,6.41
2023-07-07T00:43:32.369Z,6.43
2023-07-07T00:43:42.362Z,6.44
2023-07-07T00:43:52.401Z,6.45
2023-07-07T00:44:02.367Z,6.45
2023-07-07T00:44:12.369Z,6.44
2023-07-07T00:44:22.369Z,6.46
2023-07-07T00:44:32.363Z,6.46
2023-07-07T00:44:42.369Z,6.46
2023-07-07T00:44:52.368Z,6.48
2023-07-07T00:45:02.368Z,6.47
2023-07-07T00:45:12.420Z,6.47
2023-07-07T00:45:22.386Z,6.46
2023-07-07T00:45:32.372Z,6.47
2023-07-07T00:45:42.424Z,6.47
2023-07-07T00:45:52.368Z,6.47
2023-07-07T00:46:02.405Z,6.47
2023-07-07T00:46:22.395Z,6.44
2023-07-07T00:46:32.421Z,6.43
2023-07-07T00:46:42.477Z,6.45
2023-07-07T00:46:52.458Z,6.41
2023-07-07T00:47:03.307Z,6.42
2023-07-07T00:47:12.379Z,6.42
2023-07-07T00:47:22.419Z,6.39
2023-07-07T00:47:32.395Z,6.39
2023-07-07T00:47:42.423Z,6.39
2023-07-07T00:47:52.431Z,6.37
2023-07-07T00:48:12.388Z,6.36
2023-07-07T00:48:22.391Z,6.35
2023-07-07T00:48:32.388Z,6.34
2023-07-07T00:48:42.387Z,6.32
2023-07-07T00:48:52.413Z,6.29
2023-07-07T00:49:02.400Z,6.30
2023-07-07T00:49:12.406Z,6.29
2023-07-07T00:49:32.390Z,6.27
2023-07-07T00:49:42.392Z,6.27
2023-07-07T00:49:52.409Z,6.26
2023-07-07T00:50:02.391Z,6.26
2023-07-07T00:50:12.388Z,6.25
2023-07-07T00:50:22.400Z,6.27
2023-07-07T00:50:32.408Z,6.26
2023-07-07T00:50:42.406Z,6.25
2023-07-07T00:50:52.399Z,6.26
2023-07-07T00:51:02.409Z,6.26
2023-07-07T00:51:12.406Z,6.26
2023-07-07T00:51:22.404Z,6.26
2023-07-07T00:51:32.416Z,6.26
2023-07-07T00:51:42.435Z,6.26
2023-07-07T00:51:52.408Z,6.27
2023-07-07T00:52:12.405Z,6.28
2023-07-07T00:52:22.410Z,6.27
2023-07-07T00:52:32.403Z,6.28
2023-07-07T00:52:42.454Z,6.27
2023-07-07T00:52:52.423Z,6.27
2023-07-07T00:53:02.431Z,6.28
2023-07-07T00:53:22.415Z,6.27
2023-07-07T00:53:32.418Z,6.26
2023-07-07T00:53:42.416Z,6.26
2023-07-07T00:53:52.411Z,6.27
2023-07-07T00:54:02.415Z,6.27
2023-07-07T00:54:12.419Z,6.26
2023-07-07T00:54:22.416Z,6.25
2023-07-07T00:54:32.428Z,6.26
2023-07-07T00:54:42.435Z,6.26
2023-07-07T00:55:02.417Z,6.29
2023-07-07T00:55:12.421Z,6.31
2023-07-07T00:55:22.420Z,6.32
2023-07-07T00:55:32.408Z,6.32
2023-07-07T00:55:42.453Z,6.32
2023-07-07T00:55:52.427Z,6.32
2023-07-07T00:56:02.421Z,6.32
2023-07-07T00:56:12.458Z,6.33
2023-07-07T00:56:22.444Z,6.30
2023-07-07T00:56:32.420Z,6.32
2023-07-07T00:56:42.429Z,6.32
2023-07-07T00:56:52.413Z,6.32
2023-07-07T00:57:02.431Z,6.32
2023-07-07T00:57:22.440Z,6.32
2023-07-07T00:57:32.428Z,6.30
2023-07-07T00:57:42.439Z,6.31
2023-07-07T00:57:52.440Z,6.30
2023-07-07T00:58:02.430Z,6.29
2023-07-07T00:58:12.435Z,6.29
2023-07-07T00:58:22.434Z,6.27
2023-07-07T00:58:32.425Z,6.27
2023-07-07T00:58:52.425Z,6.26
2023-07-07T00:59:02.430Z,6.25
2023-07-07T00:59:12.433Z,6.25
2023-07-07T00:59:22.435Z,6.25
2023-07-07T00:59:32.431Z,6.24
2023-07-07T00:59:42.454Z,6.24
2023-07-07T00:59:52.451Z,6.23
2023-07-07T01:00:02.450Z,6.23
2023-07-07T01:00:12.440Z,6.21
2023-07-07T01:00:22.473Z,6.21
2023-07-07T01:00:32.445Z,6.20
2023-07-07T01:00:42.505Z,6.20
2023-07-07T01:00:52.469Z,6.19
2023-07-07T01:01:02.488Z,6.18
2023-07-07T01:01:12.500Z,6.17
2023-07-07T01:01:22.503Z,6.15
2023-07-07T01:01:32.533Z,6.15
2023-07-07T01:01:42.582Z,6.14
2023-07-07T01:01:52.534Z,6.13
2023-07-07T01:02:02.474Z,6.12
2023-07-07T01:02:12.473Z,6.13
2023-07-07T01:02:22.535Z,6.13
2023-07-07T01:02:32.561Z,6.12
2023-07-07T01:02:42.487Z,6.11
2023-07-07T01:02:52.504Z,6.12
2023-07-07T01:03:02.527Z,6.13
2023-07-07T01:03:12.479Z,6.12
2023-07-07T01:03:22.476Z,6.12
2023-07-07T01:03:32.454Z,6.12
2023-07-07T01:03:52.461Z,6.12
2023-07-07T01:04:02.491Z,6.11
2023-07-07T01:04:12.511Z,6.12
2023-07-07T01:04:22.503Z,6.12
2023-07-07T01:04:32.516Z,6.11
2023-07-07T01:04:42.543Z,6.12
2023-07-07T01:04:52.557Z,6.13
2023-07-07T01:05:02.469Z,6.14
2023-07-07T01:05:12.461Z,6.15
2023-07-07T01:05:22.466Z,6.17
2023-07-07T01:05:42.472Z,6.16
2023-07-07T01:05:52.469Z,6.16
2023-07-07T01:06:02.478Z,6.15
2023-07-07T01:06:12.461Z,6.18
2023-07-07T01:06:22.462Z,6.20
2023-07-07T01:06:32.465Z,6.20
2023-07-07T01:06:42.468Z,6.18
2023-07-07T01:06:52.477Z,6.19
2023-07-07T01:07:12.469Z,6.19
2023-07-07T01:07:22.475Z,6.18
2023-07-07T01:07:32.470Z,6.18
2023-07-07T01:07:42.479Z,6.18
2023-07-07T01:07:52.486Z,6.18
2023-07-07T01:08:02.482Z,6.17
2023-07-07T01:08:12.476Z,6.18
2023-07-07T01:08:22.474Z,6.16
2023-07-07T01:08:32.475Z,6.18
2023-07-07T01:08:42.485Z,6.16
2023-07-07T01:09:02.490Z,6.15
2023-07-07T01:09:12.500Z,6.13
2023-07-07T01:09:22.483Z,6.13
2023-07-07T01:09:32.485Z,6.13
2023-07-07T01:09:42.487Z,6.12
2023-07-07T01:09:52.494Z,6.14
2023-07-07T01:10:02.481Z,6.11
2023-07-07T01:10:12.494Z,6.10
2023-07-07T01:10:22.514Z,6.09
2023-07-07T01:10:32.494Z,6.09
2023-07-07T01:10:42.490Z,6.10
2023-07-07T01:10:52.488Z,6.10
2023-07-07T01:11:02.504Z,6.09
2023-07-07T01:11:12.513Z,6.08
2023-07-07T01:11:32.507Z,6.07
2023-07-07T01:11:42.503Z,6.08
2023-07-07T01:11:52.491Z,6.08
2023-07-07T01:12:02.531Z,6.08
2023-07-07T01:12:12.500Z,6.09
2023-07-07T01:12:22.501Z,6.08
2023-07-07T01:12:32.518Z,6.08
2023-07-07T01:12:42.497Z,6.07
2023-07-07T01:12:52.510Z,6.08
2023-07-07T01:13:12.522Z,6.10
2023-07-07T01:13:22.534Z,6.12
2023-07-07T01:13:32.539Z,6.12
2023-07-07T01:13:42.506Z,6.12
2023-07-07T01:13:52.522Z,6.11
2023-07-07T01:14:02.661Z,6.12
2023-07-07T01:14:12.503Z,6.13
2023-07-07T01:14:22.515Z,6.12
2023-07-07T01:14:32.517Z,6.13
2023-07-07T01:14:42.517Z,6.13
2023-07-07T01:14:52.515Z,6.14
2023-07-07T01:15:02.512Z,6.12
2023-07-07T01:15:12.509Z,6.12
2023-07-07T01:15:22.549Z,6.12
2023-07-07T01:15:32.510Z,6.10
2023-07-07T01:15:42.513Z,6.10
2023-07-07T01:15:52.526Z,6.11
2023-07-07T01:16:02.533Z,6.11
2023-07-07T01:16:22.608Z,6.13
2023-07-07T01:16:32.631Z,6.13
2023-07-07T01:16:42.536Z,6.13
2023-07-07T01:16:52.600Z,6.15
2023-07-07T01:17:02.533Z,6.17
2023-07-07T01:17:12.524Z,6.17
2023-07-07T01:17:22.545Z,6.17
2023-07-07T01:17:32.543Z,6.19
2023-07-07T01:17:42.537Z,6.20
2023-07-07T01:17:52.587Z,6.20
2023-07-07T01:18:12.520Z,6.18
2023-07-07T01:18:22.520Z,6.19
2023-07-07T01:18:32.518Z,6.18
2023-07-07T01:18:42.523Z,6.17
2023-07-07T01:18:52.529Z,6.18
2023-07-07T01:19:02.526Z,6.17
2023-07-07T01:19:12.524Z,6.16
2023-07-07T01:19:32.534Z,6.16
2023-07-07T01:19:42.534Z,6.15
2023-07-07T01:19:52.541Z,6.14
2023-07-07T01:20:02.530Z,6.13
2023-07-07T01:20:12.551Z,6.12
2023-07-07T01:20:22.539Z,6.12
2023-07-07T01:20:32.565Z,6.12
2023-07-07T01:20:52.531Z,6.11
2023-07-07T01:21:02.886Z,6.10
2023-07-07T01:21:12.534Z,6.08
2023-07-07T01:21:22.538Z,6.08
2023-07-07T01:21:32.533Z,6.08
2023-07-07T01:21:42.531Z,6.09
2023-07-07T01:21:52.535Z,6.09
2023-07-07T01:22:02.557Z,6.11
2023-07-07T01:22:12.536Z,6.10
2023-07-07T01:22:22.545Z,6.12
2023-07-07T01:22:32.541Z,6.12
2023-07-07T01:22:42.543Z,6.12
2023-07-07T01:22:52.565Z,6.11
2023-07-07T01:23:02.545Z,6.13
2023-07-07T01:23:12.549Z,6.15
2023-07-07T01:23:22.563Z,6.11
2023-07-07T01:23:32.560Z,6.13
2023-07-07T01:23:42.545Z,6.11
2023-07-07T01:24:02.548Z,6.14
2023-07-07T01:24:12.575Z,6.14
2023-07-07T01:24:22.545Z,6.14
2023-07-07T01:24:32.562Z,6.16
2023-07-07T01:24:42.548Z,6.18
2023-07-07T01:24:52.553Z,6.20
2023-07-07T01:25:02.556Z,6.22
2023-07-07T01:25:22.550Z,6.25
2023-07-07T01:25:32.555Z,6.26
2023-07-07T01:25:42.558Z,6.25
2023-07-07T01:25:52.575Z,6.25
2023-07-07T01:26:02.551Z,6.24
2023-07-07T01:26:12.552Z,6.25
2023-07-07T01:26:22.552Z,6.25
2023-07-07T01:26:32.556Z,6.24
2023-07-07T01:26:42.561Z,6.25
2023-07-07T01:26:52.556Z,6.26
2023-07-07T01:27:02.555Z,6.25
2023-07-07T01:27:12.561Z,6.26
2023-07-07T01:27:22.569Z,6.25
2023-07-07T01:27:32.563Z,6.25
2023-07-07T01:27:42.560Z,6.24
2023-07-07T01:27:52.577Z,6.25
2023-07-07T01:28:02.566Z,6.25
2023-07-07T01:28:12.560Z,6.25
2023-07-07T01:28:32.565Z,6.28
2023-07-07T01:28:42.565Z,6.30
2023-07-07T01:28:52.565Z,6.34
2023-07-07T01:29:02.567Z,6.35
2023-07-07T01:29:12.565Z,6.37
2023-07-07T01:29:22.570Z,6.40
2023-07-07T01:29:32.573Z,6.38
2023-07-07T01:29:42.582Z,6.41
2023-07-07T01:29:52.565Z,6.41
2023-07-07T01:30:02.566Z,6.41
2023-07-07T01:30:12.574Z,6.41
2023-07-07T01:30:22.575Z,6.42
2023-07-07T01:30:32.572Z,6.40
2023-07-07T01:30:42.615Z,6.40
2023-07-07T01:30:52.584Z,6.42
2023-07-07T01:31:02.573Z,6.39
2023-07-07T01:31:12.568Z,6.37
2023-07-07T01:31:22.619Z,6.37
2023-07-07T01:31:32.602Z,6.36
2023-07-07T01:31:42.608Z,6.34
2023-07-07T01:31:52.632Z,6.34
2023-07-07T01:32:02.641Z,6.32
2023-07-07T01:32:12.578Z,6.30
2023-07-07T01:32:22.652Z,6.29
2023-07-07T01:32:32.614Z,6.26
2023-07-07T01:32:42.650Z,6.26
2023-07-07T01:32:52.626Z,6.26
2023-07-07T01:33:02.617Z,6.26
2023-07-07T01:33:12.588Z,6.24
2023-07-07T01:33:22.583Z,6.23
2023-07-07T01:33:32.613Z,6.24
2023-07-07T01:33:52.599Z,6.23
2023-07-07T01:34:02.601Z,6.21
2023-07-07T01:34:12.589Z,6.21
2023-07-07T01:34:22.580Z,6.21
2023-07-07T01:34:32.605Z,6.20
2023-07-07T01:34:42.582Z,6.20
2023-07-07T01:35:02.586Z,6.19
2023-07-07T01:35:12.588Z,6.20
2023-07-07T01:35:22.588Z,6.21
2023-07-07T01:35:32.597Z,6.21
2023-07-07T01:35:42.596Z,6.20
2023-07-07T01:35:52.599Z,6.19
2023-07-07T01:36:02.612Z,6.20
2023-07-07T01:36:12.596Z,6.19
2023-07-07T01:36:22.600Z,6.19
2023-07-07T01:36:32.590Z,6.18
2023-07-07T01:36:42.600Z,6.19
2023-07-07T01:36:52.630Z,6.18
2023-07-07T01:37:02.595Z,6.18
2023-07-07T01:37:12.622Z,6.16
2023-07-07T01:37:22.606Z,6.16
2023-07-07T01:37:32.602Z,6.14
2023-07-07T01:37:42.615Z,6.15
2023-07-07T01:38:02.623Z,6.12
2023-07-07T01:38:12.603Z,6.13
2023-07-07T01:38:22.605Z,6.13
2023-07-07T01:38:32.605Z,6.12
2023-07-07T01:38:42.596Z,6.15
2023-07-07T01:38:52.633Z,6.14
2023-07-07T01:39:02.621Z,6.14
2023-07-07T01:39:12.605Z,6.16
2023-07-07T01:39:32.600Z,6.14
2023-07-07T01:39:42.604Z,6.15
2023-07-07T01:39:52.615Z,6.13
2023-07-07T01:40:02.608Z,6.13
2023-07-07T01:40:12.612Z,6.14
2023-07-07T01:40:22.604Z,6.13
2023-07-07T01:40:32.604Z,6.11
2023-07-07T01:40:42.612Z,6.12
2023-07-07T01:40:52.618Z,6.11
2023-07-07T01:41:02.615Z,6.10
2023-07-07T01:41:12.610Z,6.10
2023-07-07T01:41:22.621Z,6.09
2023-07-07T01:41:32.627Z,6.09
2023-07-07T01:41:42.614Z,6.08
2023-07-07T01:41:52.622Z,6.10
2023-07-07T01:42:02.611Z,6.09
2023-07-07T01:42:12.605Z,6.10
2023-07-07T01:42:32.649Z,6.12
2023-07-07T01:42:42.612Z,6.13
2023-07-07T01:42:52.627Z,6.11
2023-07-07T01:43:02.631Z,6.14
2023-07-07T01:43:12.616Z,6.16
2023-07-07T01:43:22.631Z,6.19
2023-07-07T01:43:32.617Z,6.18
2023-07-07T01:43:52.617Z,6.24
2023-07-07T01:44:02.631Z,6.24
2023-07-07T01:44:12.620Z,6.29
2023-07-07T01:44:22.620Z,6.32
2023-07-07T01:44:32.614Z,6.33
2023-07-07T01:44:42.617Z,6.35
2023-07-07T01:44:52.630Z,6.36
2023-07-07T01:45:02.622Z,6.37
2023-07-07T01:45:12.619Z,6.38
2023-07-07T01:45:32.620Z,6.36
2023-07-07T01:45:42.645Z,6.36
2023-07-07T01:45:52.668Z,6.35
2023-07-07T01:46:02.706Z,6.35
2023-07-07T01:46:12.644Z,6.35
2023-07-07T01:46:22.664Z,6.33
2023-07-07T01:46:32.622Z,6.35
2023-07-07T01:46:42.789Z,6.37
2023-07-07T01:46:52.639Z,6.36
2023-07-07T01:47:02.632Z,6.39
2023-07-07T01:47:12.625Z,6.37
2023-07-07T01:47:22.673Z,6.37
2023-07-07T01:47:32.672Z,6.37
2023-07-07T01:47:42.713Z,6.38
2023-07-07T01:47:52.713Z,6.38
2023-07-07T01:48:02.670Z,6.38
2023-07-07T01:48:22.645Z,6.38
2023-07-07T01:48:32.636Z,6.38
2023-07-07T01:48:42.655Z,6.36
2023-07-07T01:48:52.636Z,6.38
2023-07-07T01:49:02.633Z,6.38
2023-07-07T01:49:12.634Z,6.36
2023-07-07T01:49:22.642Z,6.37
2023-07-07T01:49:42.658Z,6.34
2023-07-07T01:49:52.631Z,6.34
2023-07-07T01:50:02.634Z,6.33
2023-07-07T01:50:12.653Z,6.32
2023-07-07T01:50:22.640Z,6.31
2023-07-07T01:50:32.637Z,6.32
2023-07-07T01:50:42.674Z,6.32
2023-07-07T01:50:52.638Z,6.32
2023-07-07T01:51:02.641Z,6.32
2023-07-07T01:51:22.640Z,6.32
2023-07-07T01:51:32.642Z,6.31
2023-07-07T01:51:42.641Z,6.33
2023-07-07T01:51:52.650Z,6.32
2023-07-07T01:52:02.647Z,6.32
2023-07-07T01:52:12.650Z,6.31
2023-07-07T01:52:22.671Z,6.31
2023-07-07T01:52:32.653Z,6.29
2023-07-07T01:52:42.657Z,6.30
2023-07-07T01:52:52.661Z,6.31
2023-07-07T01:53:02.649Z,6.31
2023-07-07T01:53:22.659Z,6.34
2023-07-07T01:53:32.657Z,6.34
2023-07-07T01:53:42.655Z,6.34
2023-07-07T01:53:52.652Z,6.34
2023-07-07T01:54:02.687Z,6.32
2023-07-07T01:54:12.654Z,6.33
2023-07-07T01:54:22.653Z,6.32
2023-07-07T01:54:42.683Z,6.30
2023-07-07T01:54:52.651Z,6.30
2023-07-07T01:55:02.654Z,6.28
2023-07-07T01:55:12.656Z,6.27
2023-07-07T01:55:22.658Z,6.27
2023-07-07T01:55:32.663Z,6.26
2023-07-07T01:55:52.660Z,6.26
2023-07-07T01:56:02.662Z,6.25
2023-07-07T01:56:12.668Z,6.26
2023-07-07T01:56:22.660Z,6.27
2023-07-07T01:56:32.663Z,6.27
2023-07-07T01:56:42.662Z,6.25
2023-07-07T01:56:52.671Z,6.26
2023-07-07T01:57:12.677Z,6.25
2023-07-07T01:57:22.676Z,6.27
2023-07-07T01:57:32.673Z,6.26
2023-07-07T01:57:42.679Z,6.25
2023-07-07T01:57:52.679Z,6.26
2023-07-07T01:58:02.671Z,6.27
2023-07-07T01:58:12.700Z,6.28
2023-07-07T01:58:22.670Z,6.27
2023-07-07T01:58:32.689Z,6.27
2023-07-07T01:58:42.686Z,6.26
2023-07-07T01:59:02.659Z,6.26
2023-07-07T01:59:12.699Z,6.26
2023-07-07T01:59:22.672Z,6.25
2023-07-07T01:59:32.678Z,6.25
2023-07-07T01:59:42.689Z,6.24
2023-07-07T01:59:52.679Z,6.24
2023-07-07T02:00:02.678Z,6.22
2023-07-07T02:00:22.686Z,6.21
2023-07-07T02:00:32.701Z,6.19
2023-07-07T02:00:42.683Z,6.19
2023-07-07T02:00:52.690Z,6.18
2023-07-07T02:01:02.748Z,6.17
2023-07-07T02:01:12.752Z,6.17
2023-07-07T02:01:22.722Z,6.16
2023-07-07T02:01:32.732Z,6.15
2023-07-07T02:01:42.709Z,6.14
2023-07-07T02:01:52.745Z,6.14
2023-07-07T02:02:12.686Z,6.12
2023-07-07T02:02:22.805Z,6.12
2023-07-07T02:02:32.769Z,6.11
2023-07-07T02:02:42.719Z,6.09
2023-07-07T02:02:52.762Z,6.08
2023-07-07T02:03:02.711Z,6.09
2023-07-07T02:03:12.711Z,6.11
2023-07-07T02:03:22.704Z,6.11
2023-07-07T02:03:32.693Z,6.11
2023-07-07T02:03:42.702Z,6.11
2023-07-07T02:04:02.711Z,6.11
2023-07-07T02:04:12.705Z,6.12
2023-07-07T02:04:22.814Z,6.12
2023-07-07T02:04:32.720Z,6.11
2023-07-07T02:04:42.717Z,6.10
2023-07-07T02:04:52.713Z,6.10
2023-07-07T02:05:02.759Z,6.10
2023-07-07T02:05:12.724Z,6.10
2023-07-07T02:05:22.720Z,6.10
2023-07-07T02:05:33.327Z,6.11
2023-07-07T02:05:42.699Z,6.11
2023-07-07T02:05:52.699Z,6.09
2023-07-07T02:06:02.709Z,6.10
2023-07-07T02:06:12.705Z,6.09
2023-07-07T02:06:22.701Z,6.09
2023-07-07T02:06:42.713Z,6.09
2023-07-07T02:06:52.704Z,6.08
2023-07-07T02:07:02.714Z,6.08
2023-07-07T02:07:12.722Z,6.09
2023-07-07T02:07:22.707Z,6.11
2023-07-07T02:07:32.717Z,6.11
2023-07-07T02:07:42.710Z,6.12
2023-07-07T02:07:52.703Z,6.14
2023-07-07T02:08:02.708Z,6.16
2023-07-07T02:08:12.707Z,6.17
2023-07-07T02:08:22.728Z,6.20
2023-07-07T02:08:32.739Z,6.21
2023-07-07T02:08:42.712Z,6.23
2023-07-07T02:08:52.734Z,6.24
2023-07-07T02:09:12.714Z,6.30
2023-07-07T02:09:22.732Z,6.31
2023-07-07T02:09:32.719Z,6.35
2023-07-07T02:09:58.361Z,6.36
2023-07-07T02:09:58.645Z,6.21
2023-07-07T02:10:08.661Z,6.35
2023-07-07T02:10:18.612Z,6.40
2023-07-07T02:10:28.638Z,6.40
2023-07-07T02:10:38.621Z,6.41
2023-07-07T02:10:58.995Z,6.42
2023-07-07T02:11:08.618Z,6.45
2023-07-07T02:11:18.636Z,6.46
2023-07-07T02:11:28.602Z,6.48
2023-07-07T02:11:38.603Z,6.48
2023-07-07T02:11:48.615Z,6.50
2023-07-07T02:11:58.604Z,6.50
2023-07-07T02:12:08.600Z,6.51
2023-07-07T02:12:18.609Z,6.52
2023-07-07T02:12:28.607Z,6.54
2023-07-07T02:12:38.611Z,6.55
2023-07-07T02:12:48.632Z,6.55
2023-07-07T02:12:58.616Z,6.57
2023-07-07T02:13:08.628Z,6.58
2023-07-07T02:13:18.654Z,6.59
2023-07-07T02:13:28.642Z,6.59
2023-07-07T02:13:38.619Z,6.59
2023-07-07T02:13:48.661Z,6.59
2023-07-07T02:14:08.649Z,6.62
2023-07-07T02:14:18.636Z,6.64
2023-07-07T02:14:28.613Z,6.65
2023-07-07T02:14:38.668Z,6.66
2023-07-07T02:14:48.609Z,6.67
2023-07-07T02:14:58.659Z,6.68
2023-07-07T02:15:08.632Z,6.69
2023-07-07T02:15:18.684Z,6.70
2023-07-07T02:15:28.689Z,6.72
2023-07-07T02:15:38.685Z,6.70
2023-07-07T02:15:48.676Z,6.71
2023-07-07T02:15:58.694Z,6.72
2023-07-07T02:16:08.687Z,6.73
2023-07-07T02:16:18.676Z,6.72
2023-07-07T02:16:28.687Z,6.73
2023-07-07T02:16:38.713Z,6.71
2023-07-07T02:16:48.683Z,6.71
2023-07-07T02:16:58.698Z,6.70
2023-07-07T02:17:08.719Z,6.70
2023-07-07T02:17:18.708Z,6.71
2023-07-07T02:17:28.733Z,6.70
2023-07-07T02:17:48.836Z,6.67
2023-07-07T02:17:58.761Z,6.66
2023-07-07T02:18:08.739Z,6.65
2023-07-07T02:18:18.815Z,6.63
2023-07-07T02:18:28.751Z,6.61
2023-07-07T02:18:38.692Z,6.61
2023-07-07T02:18:58.637Z,6.60
2023-07-07T02:19:08.635Z,6.57
2023-07-07T02:19:18.682Z,6.57
2023-07-07T02:19:28.637Z,6.56
2023-07-07T02:19:38.686Z,6.56
2023-07-07T02:19:48.695Z,6.57
2023-07-07T02:19:58.694Z,6.55
2023-07-07T02:20:08.681Z,6.55
2023-07-07T02:20:18.639Z,6.56
2023-07-07T02:20:28.645Z,6.56
2023-07-07T02:20:48.638Z,6.54
2023-07-07T02:20:58.881Z,6.55
2023-07-07T02:21:08.644Z,6.54
2023-07-07T02:21:18.650Z,6.53
2023-07-07T02:21:28.646Z,6.53
2023-07-07T02:21:38.641Z,6.52
2023-07-07T02:21:48.639Z,6.51
2023-07-07T02:21:58.641Z,6.51
2023-07-07T02:22:08.648Z,6.50
2023-07-07T02:22:18.646Z,6.53
2023-07-07T02:22:28.661Z,6.54
2023-07-07T02:22:38.734Z,6.56
2023-07-07T02:22:48.709Z,6.57
2023-07-07T02:22:58.726Z,6.59
2023-07-07T02:23:08.702Z,6.62
2023-07-07T02:23:18.663Z,6.64
2023-07-07T02:23:28.670Z,6.67
2023-07-07T02:23:48.652Z,6.71
2023-07-07T02:23:58.663Z,6.74
2023-07-07T02:24:08.650Z,6.75
2023-07-07T02:24:18.667Z,6.77
2023-07-07T02:24:28.658Z,6.78
2023-07-07T02:24:38.653Z,6.81
2023-07-07T02:24:48.667Z,6.87